createdAt,value
2022-09-09T00:01:28.692Z,6.48
2022-09-09T00:04:16.177Z,6.48
2022-09-09T00:06:50.555Z,6.48
2022-09-09T00:09:27.056Z,6.49
2022-09-09T00:12:05.651Z,6.45
2022-09-09T00:14:42.741Z,6.43
2022-09-09T00:17:29.272Z,6.43
2022-09-09T00:20:07.549Z,6.41
2022-09-09T00:22:47.152Z,6.37
2022-09-09T00:25:27.331Z,6.37
2022-09-09T00:28:02.126Z,6.35
2022-09-09T00:30:39.065Z,6.35
2022-09-09T00:33:16.383Z,6.37
2022-09-09T00:35:50.758Z,6.38
2022-09-09T00:38:27.126Z,6.38
2022-09-09T00:41:03.658Z,6.28
2022-09-09T00:43:39.371Z,6.21
2022-09-09T00:49:32.201Z,6.34
2022-09-09T00:52:14.160Z,6.22
2022-09-09T00:54:52.477Z,6.21
2022-09-09T00:57:32.337Z,6.22
2022-09-09T01:00:21.025Z,6.27
2022-09-09T01:03:04.501Z,6.32
2022-09-09T01:05:43.451Z,6.32
2022-09-09T01:08:22.602Z,6.33
2022-09-09T01:10:59.102Z,6.30
2022-09-09T01:13:35.456Z,6.25
2022-09-09T01:16:14.102Z,6.19
2022-09-09T01:18:50.644Z,6.17
2022-09-09T01:21:27.773Z,6.15
2022-09-09T01:24:09.628Z,6.10
2022-09-09T01:26:45.938Z,6.07
2022-09-09T01:29:23.541Z,6.03
2022-09-09T01:31:59.008Z,6.02
2022-09-09T01:34:35.341Z,6.03
2022-09-09T01:37:10.322Z,6.04
2022-09-09T01:39:47.201Z,6.06
2022-09-09T01:42:22.361Z,6.05
2022-09-09T01:44:56.549Z,6.03
2022-09-09T01:47:31.524Z,5.96
2022-09-09T01:50:13.229Z,5.93
2022-09-09T01:52:48.831Z,5.91
2022-09-09T01:55:26.580Z,5.91
2022-09-09T01:58:05.691Z,5.88
2022-09-09T02:00:42.734Z,5.83
2022-09-09T02:03:19.555Z,5.81
2022-09-09T02:05:57.769Z,5.79
2022-09-09T02:08:37.396Z,5.78
2022-09-09T02:11:15.783Z,5.74
2022-09-09T02:13:53.275Z,5.66
2022-09-09T02:16:29.890Z,5.54
2022-09-09T02:19:07.202Z,5.42
2022-09-09T02:21:44.552Z,5.34
2022-09-09T02:24:19.486Z,5.34
2022-09-09T02:26:56.883Z,5.37
2022-09-09T02:29:33.573Z,5.43
2022-09-09T02:32:10.823Z,5.48
2022-09-09T02:34:47.671Z,5.50
2022-09-09T02:37:23.920Z,5.46
2022-09-09T02:39:58.997Z,5.37
2022-09-09T02:42:34.129Z,5.26
2022-09-09T02:45:09.477Z,5.18
2022-09-09T02:47:47.827Z,5.10
2022-09-09T02:50:24.501Z,5.02
2022-09-09T02:53:07.573Z,4.99
2022-09-09T02:55:47.496Z,4.94
2022-09-09T02:58:22.724Z,4.89
2022-09-09T03:01:02.342Z,4.84
2022-09-09T03:03:37.353Z,4.79
2022-09-09T03:06:13.895Z,4.75
2022-09-09T03:08:49.781Z,4.71
2022-09-09T03:11:25.030Z,4.68
2022-09-09T03:14:00.214Z,4.63
2022-09-09T03:16:35.542Z,4.61
2022-09-09T03:19:09.006Z,4.58
2022-09-09T03:21:42.413Z,4.58
2022-09-09T03:24:15.601Z,4.60
2022-09-09T03:26:49.233Z,4.60
2022-09-09T03:29:22.948Z,4.63
2022-09-09T03:31:58.086Z,4.64
2022-09-09T03:34:31.956Z,4.66
2022-09-09T03:37:06.675Z,4.66
2022-09-09T03:39:40.319Z,4.66
2022-09-09T03:42:18.301Z,4.66
2022-09-09T03:44:51.463Z,4.67
2022-09-09T03:47:26.204Z,4.70
2022-09-09T03:50:01.213Z,4.65
2022-09-09T03:52:36.529Z,4.65
2022-09-09T03:55:12.295Z,4.66
2022-09-09T03:57:47.189Z,4.68
2022-09-09T04:00:21.729Z,4.69
2022-09-09T04:02:58.909Z,4.69
2022-09-09T04:05:33.967Z,4.71
2022-09-09T04:08:07.371Z,4.74
2022-09-09T04:10:43.969Z,4.78
2022-09-09T04:13:18.806Z,4.82
2022-09-09T04:15:56.371Z,4.85
2022-09-09T04:18:30.453Z,4.88
2022-09-09T04:21:04.821Z,4.91
2022-09-09T04:23:38.142Z,4.94
2022-09-09T04:26:12.400Z,5.00
2022-09-09T04:28:46.552Z,5.04
2022-09-09T04:31:24.886Z,5.09
2022-09-09T04:34:01.824Z,5.13
2022-09-09T04:36:36.128Z,5.16
2022-09-09T04:39:10.886Z,5.21
2022-09-09T04:41:44.693Z,5.26
2022-09-09T04:44:18.324Z,5.29
2022-09-09T04:46:51.665Z,5.35
2022-09-09T04:49:26.868Z,5.41
2022-09-09T04:52:02.167Z,5.45
2022-09-09T04:54:36.446Z,5.50
2022-09-09T04:57:10.102Z,5.56
2022-09-09T04:59:45.675Z,5.62
2022-09-09T05:02:32.701Z,5.68
2022-09-09T05:05:10.209Z,5.74
2022-09-09T05:07:44.579Z,5.82
2022-09-09T05:10:19.696Z,5.90
2022-09-09T05:13:00.186Z,5.97
2022-09-09T05:15:47.357Z,6.05
2022-09-09T05:18:23.971Z,6.11
2022-09-09T05:21:07.391Z,6.19
2022-09-09T05:23:43.894Z,6.26
2022-09-09T05:26:20.744Z,6.32
2022-09-09T05:29:02.003Z,6.39
2022-09-09T05:31:36.676Z,6.45
2022-09-09T05:34:26.602Z,6.50
2022-09-09T05:37:01.294Z,6.57
2022-09-09T05:39:35.314Z,6.63
2022-09-09T05:42:09.924Z,6.71
2022-09-09T05:44:46.101Z,6.78
2022-09-09T05:47:20.008Z,6.85
2022-09-09T05:49:53.696Z,6.89
2022-09-09T05:52:28.268Z,6.94
2022-09-09T05:55:02.067Z,7.04
2022-09-09T05:57:35.776Z,6.88
2022-09-09T06:00:13.503Z,7.22
2022-09-09T06:02:55.784Z,7.30
2022-09-09T06:05:29.124Z,7.34
2022-09-09T06:08:02.889Z,7.46
2022-09-09T06:10:37.448Z,7.46
2022-09-09T06:13:12.744Z,7.54
2022-09-09T06:15:54.167Z,7.61
2022-09-09T06:18:28.620Z,7.72
2022-09-09T06:21:05.452Z,7.95
2022-09-09T06:23:39.191Z,8.44
2022-09-09T06:26:15.137Z,9.49
2022-09-09T06:28:50.388Z,10.92
2022-09-09T06:31:29.726Z,12.81
2022-09-09T06:34:02.267Z,14.38
2022-09-09T06:36:38.824Z,15.44
2022-09-09T06:39:14.958Z,16.55
2022-09-09T06:41:48.463Z,17.74
2022-09-09T06:44:33.314Z,19.15
2022-09-09T06:47:05.188Z,20.67
2022-09-09T06:49:39.391Z,21.73
2022-09-09T06:52:15.525Z,22.38
2022-09-09T06:54:49.668Z,22.80
2022-09-09T06:57:39.046Z,22.79
2022-09-09T06:59:59.214Z,23.29
2022-09-09T07:02:36.166Z,23.83
2022-09-09T07:05:11.854Z,24.85
2022-09-09T07:07:46.694Z,25.59
2022-09-09T07:10:21.353Z,25.99
2022-09-09T07:12:55.882Z,25.91
2022-09-09T07:15:31.213Z,24.55
2022-09-09T07:18:06.543Z,24.35
2022-09-09T07:20:40.115Z,25.36
2022-09-09T07:23:13.588Z,26.79
2022-09-09T07:25:49.694Z,27.14
2022-09-09T07:28:23.912Z,25.75
2022-09-09T07:31:02.375Z,25.01
2022-09-09T07:33:37.817Z,25.39
2022-09-09T07:36:13.869Z,24.65
2022-09-09T07:38:49.374Z,24.15
2022-09-09T07:41:24.310Z,25.46
2022-09-09T07:43:59.701Z,26.20
2022-09-09T07:46:33.536Z,24.44
2022-09-09T07:49:08.010Z,23.43
2022-09-09T07:51:43.558Z,24.70
2022-09-09T07:54:21.567Z,22.54
2022-09-09T07:56:55.920Z,20.89
2022-09-09T07:59:31.469Z,21.09
2022-09-09T08:02:05.275Z,21.39
2022-09-09T08:04:40.189Z,22.74
2022-09-09T08:07:14.291Z,24.88
2022-09-09T08:09:52.591Z,26.84
2022-09-09T08:12:28.986Z,25.87
2022-09-09T08:15:02.837Z,23.86
2022-09-09T08:17:39.119Z,22.90
2022-09-09T08:20:13.858Z,24.10
2022-09-09T08:22:48.408Z,25.71
2022-09-09T08:25:21.817Z,27.09
2022-09-09T08:27:56.958Z,28.67
2022-09-09T08:30:31.036Z,29.44
2022-09-09T08:33:04.568Z,29.81
2022-09-09T08:35:37.804Z,28.45
2022-09-09T08:38:11.328Z,27.92
2022-09-09T08:40:49.615Z,29.56
2022-09-09T08:43:26.201Z,31.37
2022-09-09T08:46:05.327Z,32.85
2022-09-09T08:48:47.621Z,33.16
2022-09-09T08:51:22.404Z,31.35
2022-09-09T08:53:59.979Z,27.92
2022-09-09T08:56:35.373Z,25.06
2022-09-09T08:59:11.542Z,23.21
2022-09-09T09:02:05.376Z,21.71
2022-09-09T09:04:55.887Z,20.80
2022-09-09T09:07:36.563Z,19.76
2022-09-09T09:10:39.774Z,19.33
2022-09-09T09:12:52.377Z,19.23
2022-09-09T09:15:32.081Z,21.38
2022-09-09T09:18:04.614Z,22.96
2022-09-09T09:20:42.764Z,25.28
2022-09-09T09:23:21.064Z,28.31
2022-09-09T09:25:58.656Z,28.62
2022-09-09T09:28:37.466Z,29.07
2022-09-09T09:31:14.968Z,29.31
2022-09-09T09:33:50.837Z,27.93
2022-09-09T09:36:28.269Z,26.02
2022-09-09T09:41:39.693Z,21.77
2022-09-09T09:44:27.051Z,20.99
2022-09-09T09:47:13.313Z,20.20
2022-09-09T09:49:56.550Z,19.51
2022-09-09T09:52:31.558Z,19.34
2022-09-09T09:55:09.849Z,19.41
2022-09-09T09:57:43.323Z,20.63
2022-09-09T10:00:20.298Z,23.77
2022-09-09T10:03:06.053Z,27.54
2022-09-09T10:05:41.600Z,30.93
2022-09-09T10:08:19.770Z,30.04
2022-09-09T10:11:08.086Z,27.70
2022-09-09T10:13:46.780Z,25.62
2022-09-09T10:16:35.437Z,23.90
2022-09-09T10:19:13.783Z,22.61
2022-09-09T10:21:59.738Z,21.66
2022-09-09T10:24:56.468Z,20.76
2022-09-09T10:27:32.985Z,19.79
2022-09-09T10:30:11.707Z,21.17
2022-09-09T10:32:54.205Z,22.20
2022-09-09T10:35:34.667Z,25.27
2022-09-09T10:38:20.048Z,28.38
2022-09-09T10:41:27.005Z,30.66
2022-09-09T10:44:25.351Z,29.22
2022-09-09T10:47:20.939Z,25.42
2022-09-09T10:50:57.089Z,22.49
2022-09-09T10:53:10.483Z,21.08
2022-09-09T10:55:47.059Z,20.30
2022-09-09T10:58:23.264Z,19.92
2022-09-09T11:01:00.558Z,19.64
2022-09-09T11:03:36.138Z,20.76
2022-09-09T11:06:12.248Z,23.44
2022-09-09T11:08:46.260Z,26.34
2022-09-09T11:11:22.967Z,28.01
2022-09-09T11:14:00.197Z,30.19
2022-09-09T11:16:36.112Z,31.31
2022-09-09T11:19:14.546Z,29.88
2022-09-09T11:21:50.624Z,26.76
2022-09-09T11:24:28.518Z,24.13
2022-09-09T11:27:04.922Z,22.74
2022-09-09T11:29:54.949Z,23.16
2022-09-09T11:33:21.139Z,22.04
2022-09-09T11:38:41.819Z,20.02
2022-09-09T11:41:21.525Z,19.11
2022-09-09T11:43:54.326Z,18.27
2022-09-09T11:46:36.714Z,17.56
2022-09-09T11:49:26.312Z,18.32
2022-09-09T11:52:00.025Z,21.33
2022-09-09T11:54:37.342Z,24.55
2022-09-09T11:57:27.051Z,26.26
2022-09-09T12:00:01.139Z,27.03
2022-09-09T12:02:37.839Z,26.93
2022-09-09T12:05:15.349Z,27.01
2022-09-09T12:07:54.878Z,26.79
2022-09-09T12:10:31.217Z,26.91
2022-09-09T12:13:21.704Z,25.98
2022-09-09T12:15:56.638Z,23.98
2022-09-09T12:18:37.924Z,22.57
2022-09-09T12:21:15.468Z,21.79
2022-09-09T12:23:52.754Z,20.99
2022-09-09T12:26:36.386Z,20.13
2022-09-09T12:29:15.543Z,19.75
2022-09-09T12:31:51.845Z,20.04
2022-09-09T12:34:31.782Z,19.85
2022-09-09T12:37:08.779Z,19.20
2022-09-09T12:39:46.847Z,20.34
2022-09-09T12:42:24.746Z,22.33
2022-09-09T12:44:59.980Z,24.03
2022-09-09T12:47:41.661Z,24.58
2022-09-09T12:50:22.613Z,25.68
2022-09-09T12:52:59.614Z,27.03
2022-09-09T12:55:35.235Z,28.35
2022-09-09T12:58:09.796Z,28.90
2022-09-09T13:00:46.046Z,28.81
2022-09-09T13:03:22.242Z,28.91
2022-09-09T13:05:59.001Z,28.94
2022-09-09T13:08:32.272Z,28.61
2022-09-09T13:11:08.848Z,27.75
2022-09-09T13:13:44.281Z,27.56
2022-09-09T13:16:28.141Z,27.48
2022-09-09T13:19:02.974Z,28.31
2022-09-09T13:21:38.607Z,28.24
2022-09-09T13:24:30.207Z,26.31
2022-09-09T13:27:05.612Z,24.49
2022-09-09T13:29:40.877Z,22.93
2022-09-09T13:35:28.443Z,23.96
2022-09-09T13:38:03.699Z,24.65
2022-09-09T13:40:38.040Z,25.10
2022-09-09T13:43:18.353Z,26.69
2022-09-09T13:45:59.163Z,28.11
2022-09-09T13:48:33.095Z,29.08
2022-09-09T13:51:07.211Z,29.65
2022-09-09T13:53:40.765Z,29.74
2022-09-09T13:56:14.671Z,29.42
2022-09-09T13:58:48.176Z,29.57
2022-09-09T14:01:22.882Z,29.61
2022-09-09T14:03:56.934Z,29.44
2022-09-09T14:06:33.422Z,29.23
2022-09-09T14:09:07.536Z,29.11
2022-09-09T14:11:41.622Z,29.04
2022-09-09T14:14:15.046Z,28.59
2022-09-09T14:16:48.818Z,28.77
2022-09-09T14:19:22.282Z,28.84
2022-09-09T14:21:55.750Z,28.48
2022-09-09T14:24:29.683Z,27.97
2022-09-09T14:27:03.001Z,25.81
2022-09-09T14:29:36.552Z,23.71
2022-09-09T14:32:12.761Z,22.32
2022-09-09T14:34:45.111Z,21.51
2022-09-09T14:37:18.556Z,22.23
2022-09-09T14:39:52.709Z,23.07
2022-09-09T14:42:26.339Z,23.83
2022-09-09T14:45:00.045Z,24.61
2022-09-09T14:47:35.533Z,25.10
2022-09-09T14:50:11.324Z,25.28
2022-09-09T14:52:45.431Z,24.28
2022-09-09T14:55:20.297Z,23.99
2022-09-09T14:57:53.734Z,23.02
2022-09-09T15:00:27.684Z,21.55
2022-09-09T15:03:01.798Z,20.59
2022-09-09T15:05:35.654Z,20.02
2022-09-09T15:08:09.654Z,19.31
2022-09-09T15:10:43.798Z,19.37
2022-09-09T15:13:19.023Z,19.85
2022-09-09T15:15:52.764Z,19.67
2022-09-09T15:18:26.681Z,19.92
2022-09-09T15:21:01.158Z,20.19
2022-09-09T15:23:38.340Z,19.92
2022-09-09T15:26:13.278Z,19.34
2022-09-09T15:28:50.927Z,19.12
2022-09-09T15:31:26.423Z,19.07
2022-09-09T15:34:02.650Z,19.05
2022-09-09T15:36:38.468Z,19.01
2022-09-09T15:42:10.660Z,18.47
2022-09-09T15:44:45.523Z,17.90
2022-09-09T15:47:24.504Z,17.35
2022-09-09T15:49:59.103Z,16.94
2022-09-09T15:52:37.506Z,16.71
2022-09-09T15:55:12.858Z,16.39
2022-09-09T15:57:46.458Z,16.06
2022-09-09T16:00:20.573Z,15.70
2022-09-09T16:02:54.276Z,15.38
2022-09-09T16:05:28.607Z,15.08
2022-09-09T16:08:01.831Z,14.82
2022-09-09T16:10:35.485Z,14.62
2022-09-09T16:13:09.902Z,14.49
2022-09-09T16:15:43.762Z,14.31
2022-09-09T16:18:17.424Z,14.18
2022-09-09T16:20:58.057Z,14.09
2022-09-09T16:23:31.786Z,13.97
2022-09-09T16:26:06.250Z,13.86
2022-09-09T16:28:40.248Z,13.75
2022-09-09T16:31:15.955Z,13.66
2022-09-09T16:33:51.690Z,13.52
2022-09-09T16:36:27.673Z,13.37
2022-09-09T16:39:02.727Z,13.31
2022-09-09T16:41:36.671Z,13.26
2022-09-09T16:44:12.089Z,13.13
2022-09-09T16:46:47.625Z,13.05
2022-09-09T16:49:21.520Z,12.98
2022-09-09T16:51:56.188Z,12.93
2022-09-09T16:54:32.923Z,12.79
2022-09-09T16:57:07.890Z,12.72
2022-09-09T16:59:42.704Z,12.65
2022-09-09T17:02:16.538Z,12.54
2022-09-09T17:04:50.450Z,12.46
2022-09-09T17:07:24.704Z,12.40
2022-09-09T17:10:00.507Z,12.38
2022-09-09T17:12:39.719Z,12.33
2022-09-09T17:15:16.529Z,12.27
2022-09-09T17:17:53.497Z,12.21
2022-09-09T17:20:27.518Z,12.17
2022-09-09T17:23:00.944Z,12.14
2022-09-09T17:25:35.167Z,12.09
2022-09-09T17:28:08.878Z,12.05
2022-09-09T17:30:42.737Z,11.99
2022-09-09T17:33:16.669Z,11.95
2022-09-09T17:35:50.866Z,11.84
2022-09-09T17:38:28.607Z,11.85
2022-09-09T17:41:07.230Z,11.76
2022-09-09T17:43:41.461Z,11.71
2022-09-09T17:46:17.234Z,11.65
2022-09-09T17:48:52.842Z,11.57
2022-09-09T17:51:30.749Z,11.52
2022-09-09T17:54:04.384Z,11.48
2022-09-09T17:56:38.840Z,11.43
2022-09-09T17:59:14.380Z,11.35
2022-09-09T18:01:52.099Z,11.32
2022-09-09T18:04:26.315Z,11.30
2022-09-09T18:07:00.282Z,11.25
2022-09-09T18:09:35.225Z,11.20
2022-09-09T18:12:10.147Z,11.15
2022-09-09T18:14:46.074Z,11.10
2022-09-09T18:17:19.822Z,11.07
2022-09-09T18:19:53.580Z,11.03
2022-09-09T18:22:27.788Z,11.00
2022-09-09T18:25:01.484Z,10.96
2022-09-09T18:27:34.940Z,10.94
2022-09-09T18:30:11.376Z,10.89
2022-09-09T18:32:46.796Z,10.83
2022-09-09T18:35:21.716Z,10.77
2022-09-09T18:37:56.590Z,10.67
2022-09-09T18:40:33.496Z,10.58
2022-09-09T18:43:08.099Z,10.53
2022-09-09T18:45:42.221Z,10.49
2022-09-09T18:48:16.302Z,10.44
2022-09-09T18:50:49.914Z,10.40
2022-09-09T18:53:28.471Z,10.35
2022-09-09T18:56:04.005Z,10.28
2022-09-09T18:58:39.218Z,10.23
2022-09-09T19:01:16.714Z,10.18
2022-09-09T19:03:50.501Z,10.14
2022-09-09T19:06:27.613Z,10.06
2022-09-09T19:09:03.810Z,10.01
2022-09-09T19:11:36.993Z,9.98
2022-09-09T19:14:13.349Z,9.85
2022-09-09T19:16:48.710Z,9.88
2022-09-09T19:19:24.527Z,9.87
2022-09-09T19:21:58.241Z,9.85
2022-09-09T19:24:33.602Z,9.83
2022-09-09T19:27:08.624Z,9.72
2022-09-09T19:29:43.273Z,9.75
2022-09-09T19:34:54.362Z,9.64
2022-09-09T19:37:28.566Z,9.64
2022-09-09T19:40:02.434Z,9.59
2022-09-09T19:42:36.363Z,9.54
2022-09-09T19:45:11.548Z,9.49
2022-09-09T19:47:45.116Z,9.45
2022-09-09T19:50:19.639Z,9.43
2022-09-09T19:52:55.085Z,9.42
2022-09-09T19:55:29.119Z,9.40
2022-09-09T19:58:04.523Z,9.39
2022-09-09T20:00:39.816Z,9.37
2022-09-09T20:03:19.685Z,9.33
2022-09-09T20:05:50.270Z,9.33
2022-09-09T20:08:24.597Z,9.30
2022-09-09T20:11:00.516Z,9.25
2022-09-09T20:13:36.158Z,9.21
2022-09-09T20:16:13.171Z,9.16
2022-09-09T20:18:50.385Z,9.14
2022-09-09T20:21:26.762Z,9.12
2022-09-09T20:24:02.955Z,9.10
2022-09-09T20:26:37.741Z,9.06
2022-09-09T20:29:16.163Z,9.03
2022-09-09T20:31:49.783Z,8.97
2022-09-09T20:34:25.297Z,8.93
2022-09-09T20:37:01.582Z,8.90
2022-09-09T20:39:37.754Z,8.87
2022-09-09T20:42:12.149Z,8.86
2022-09-09T20:44:45.647Z,8.85
2022-09-09T20:47:19.421Z,8.83
2022-09-09T20:49:53.135Z,8.82
2022-09-09T20:52:26.653Z,8.80
2022-09-09T20:55:00.248Z,8.78
2022-09-09T20:57:34.587Z,8.75
2022-09-09T21:00:10.434Z,8.70
2022-09-09T21:02:44.085Z,8.69
2022-09-09T21:05:22.037Z,8.67
2022-09-09T21:07:57.027Z,8.66
2022-09-09T21:10:32.424Z,8.62
2022-09-09T21:13:05.851Z,8.56
2022-09-09T21:15:40.262Z,8.52
2022-09-09T21:18:13.766Z,8.48
2022-09-09T21:20:47.867Z,8.43
2022-09-09T21:23:21.566Z,8.37
2022-09-09T21:25:55.619Z,8.31
2022-09-09T21:28:29.272Z,8.26
2022-09-09T21:31:02.524Z,8.26
2022-09-09T21:33:36.867Z,8.26
2022-09-09T21:36:13.017Z,8.25
2022-09-09T21:38:46.684Z,8.21
2022-09-09T21:41:20.477Z,8.16
2022-09-09T21:43:55.722Z,8.12
2022-09-09T21:46:29.631Z,8.06
2022-09-09T21:49:03.607Z,8.01
2022-09-09T21:51:37.381Z,8.01
2022-09-09T21:54:11.175Z,8.00
2022-09-09T21:56:44.768Z,7.98
2022-09-09T21:59:18.151Z,7.94
2022-09-09T22:01:51.805Z,7.90
2022-09-09T22:04:25.467Z,7.81
2022-09-09T22:06:59.261Z,7.72
2022-09-09T22:09:32.916Z,7.61
2022-09-09T22:12:07.644Z,7.55
2022-09-09T22:14:41.744Z,7.49
2022-09-09T22:17:15.820Z,7.46
2022-09-09T22:19:49.355Z,7.43
2022-09-09T22:22:23.109Z,7.39
2022-09-09T22:24:56.978Z,7.37
2022-09-09T22:27:30.959Z,7.32
2022-09-09T22:30:04.971Z,7.28
2022-09-09T22:32:38.802Z,7.28
2022-09-09T22:35:13.075Z,7.27
2022-09-09T22:37:46.380Z,7.28
2022-09-09T22:40:20.166Z,7.26
2022-09-09T22:42:54.627Z,7.23
2022-09-09T22:45:28.268Z,7.14
2022-09-09T22:48:01.966Z,7.22
2022-09-09T22:50:42.147Z,7.22
2022-09-09T22:53:15.826Z,7.23
2022-09-09T22:55:59.540Z,7.23
2022-09-09T22:58:35.771Z,7.23
2022-09-09T23:01:15.597Z,7.25
2022-09-09T23:03:49.741Z,7.23
2022-09-09T23:06:25.369Z,7.24
2022-09-09T23:09:01.972Z,7.22
2022-09-09T23:11:37.949Z,7.22
2022-09-09T23:14:12.885Z,7.22
2022-09-09T23:16:47.405Z,7.21
2022-09-09T23:19:21.930Z,7.22
2022-09-09T23:21:55.464Z,7.22
2022-09-09T23:24:29.242Z,7.21
2022-09-09T23:27:02.664Z,7.24
2022-09-09T23:29:36.122Z,7.27
2022-09-09T23:32:11.341Z,7.29
2022-09-09T23:34:45.949Z,7.30
2022-09-09T23:37:20.319Z,7.28
2022-09-09T23:39:54.060Z,7.25
2022-09-09T23:42:27.441Z,7.20
2022-09-09T23:45:01.209Z,7.18
2022-09-09T23:47:35.504Z,7.16
2022-09-09T23:50:11.287Z,7.13
2022-09-09T23:52:44.821Z,7.00
2022-09-09T23:55:18.535Z,7.01
2022-09-09T23:57:53.264Z,6.93
